Time;durP1;ratioP1;P1;durP2;ratioP2;P2;SDS_P1;SDS_P2;PMS_P1;PMS_P2;Temp;Humidity;BMP_temperature;BMP_pressure;BME280_temperature;BME280_humidity;BME280_pressure;Samples;Min_cycle;Max_cycle;Signal;HPM_P1;HPM_P2
2022/10/30 00:00:48;;;;;;;1999.90;999.90;;;14.20;99.90;;;;;;5086896;28;20036;-64
2022/10/30 00:03:15;;;;;;;1999.90;999.90;;;14.20;99.90;;;;;;5086375;28;20117;-64
2022/10/30 00:05:42;;;;;;;1999.90;999.90;;;14.20;99.90;;;;;;5079688;28;20032;-64
2022/10/30 00:08:10;;;;;;;1999.90;999.90;;;14.20;99.90;;;;;;5090482;28;20395;-64
2022/10/30 00:10:35;;;;;;;1999.90;999.90;;;14.20;99.90;;;;;;5086175;28;20044;-64
2022/10/30 00:13:01;;;;;;;1999.90;999.90;;;14.20;99.90;;;;;;5082700;28;20416;-64
2022/10/30 00:15:27;;;;;;;1999.90;999.90;;;14.10;99.90;;;;;;5077396;28;20450;-64
2022/10/30 00:17:52;;;;;;;1999.90;999.90;;;14.10;99.90;;;;;;5083244;28;20039;-64
2022/10/30 00:20:18;;;;;;;1999.90;999.90;;;14.10;99.90;;;;;;5080967;28;20055;-64
2022/10/30 00:22:43;;;;;;;1999.90;999.90;;;14.10;99.90;;;;;;5080669;28;20075;-64
2022/10/30 00:25:09;;;;;;;1999.90;999.90;;;14.10;99.90;;;;;;5088867;28;20032;-64
2022/10/30 00:27:34;;;;;;;1999.90;999.90;;;14.10;99.90;;;;;;5083112;28;20044;-64
2022/10/30 00:30:00;;;;;;;1999.90;999.90;;;14.10;99.90;;;;;;5088682;28;20165;-64
2022/10/30 00:32:26;;;;;;;1999.90;999.90;;;14.10;99.90;;;;;;5085537;28;20128;-64
2022/10/30 00:34:52;;;;;;;1999.90;999.90;;;14.10;99.90;;;;;;5096645;28;20593;-64
2022/10/30 00:37:17;;;;;;;1999.90;999.90;;;14.00;99.90;;;;;;5083922;28;20051;-64
2022/10/30 00:39:43;;;;;;;1999.90;999.90;;;14.10;99.90;;;;;;5081253;28;20086;-64
2022/10/30 00:42:12;;;;;;;1999.90;999.90;;;14.10;99.90;;;;;;5083472;28;20107;-64
2022/10/30 00:44:44;;;;;;;1999.90;999.90;;;14.10;99.90;;;;;;5083895;28;20046;-64
2022/10/30 00:47:22;;;;;;;1999.90;999.90;;;14.10;99.90;;;;;;5081926;28;20062;-64
2022/10/30 00:50:12;;;;;;;1999.90;999.90;;;14.10;99.90;;;;;;5081417;28;20296;-64
2022/10/30 00:52:42;;;;;;;1999.90;999.90;;;14.10;99.90;;;;;;5087768;28;20044;-64
2022/10/30 00:55:12;;;;;;;1999.90;999.90;;;14.10;99.90;;;;;;5085321;28;20036;-64
2022/10/30 00:57:39;;;;;;;1999.90;999.90;;;14.10;99.90;;;;;;5083601;28;20396;-64
2022/10/30 01:00:07;;;;;;;1999.90;999.90;;;14.00;99.90;;;;;;5078564;28;20399;-64
2022/10/30 01:02:33;;;;;;;1999.90;999.90;;;14.00;99.90;;;;;;5091657;28;20052;-64
2022/10/30 01:04:59;;;;;;;1999.90;999.90;;;13.90;99.90;;;;;;5083203;28;20500;-64
2022/10/30 01:07:25;;;;;;;1999.90;999.90;;;13.90;99.90;;;;;;5062553;28;20097;-64
2022/10/30 01:09:51;;;;;;;1999.90;999.90;;;13.90;99.90;;;;;;5078380;28;20395;-64
2022/10/30 01:12:16;;;;;;;1999.90;999.90;;;13.80;99.90;;;;;;5085276;28;20536;-64
2022/10/30 01:14:48;;;;;;;1999.90;999.90;;;13.80;99.90;;;;;;5086981;28;20551;-64
2022/10/30 01:17:36;;;;;;;1999.90;999.90;;;13.80;99.90;;;;;;5081846;28;20048;-64
2022/10/30 01:20:26;;;;;;;1999.90;999.90;;;13.80;99.90;;;;;;5097847;28;20052;-64
2022/10/30 01:23:01;;;;;;;1999.90;999.90;;;13.70;99.90;;;;;;5082815;28;20040;-64
2022/10/30 01:26:17;;;;;;;1999.90;999.90;;;13.70;99.90;;;;;;5077569;28;20398;-64
2022/10/30 01:29:13;;;;;;;1999.90;999.90;;;13.70;99.90;;;;;;5022900;28;20208;-64
2022/10/30 01:32:03;;;;;;;1999.90;999.90;;;13.70;99.90;;;;;;5008462;28;20085;-64
2022/10/30 01:34:34;;;;;;;1999.90;999.90;;;13.70;99.90;;;;;;5080666;28;20056;-64
2022/10/30 01:37:12;;;;;;;1999.90;999.90;;;13.60;99.90;;;;;;5085948;28;20070;-64
2022/10/30 01:39:39;;;;;;;1999.90;999.90;;;13.60;99.90;;;;;;5084198;28;20080;-64
2022/10/30 01:42:39;;;;;;;1999.90;999.90;;;13.60;99.90;;;;;;5083882;28;20044;-64
2022/10/30 01:45:05;;;;;;;1999.90;999.90;;;13.50;99.90;;;;;;5081241;28;20064;-64
2022/10/30 01:48:01;;;;;;;1999.90;999.90;;;13.50;99.90;;;;;;5082181;28;20479;-64
2022/10/30 01:50:56;;;;;;;1999.90;999.90;;;13.50;99.90;;;;;;5077196;28;20127;-64
2022/10/30 01:53:38;;;;;;;1999.90;999.90;;;13.50;99.90;;;;;;5088029;28;20043;-64
2022/10/30 01:56:10;;;;;;;1999.90;999.90;;;13.40;99.90;;;;;;5061219;28;20123;-64
2022/10/30 01:59:12;;;;;;;1999.90;999.90;;;13.40;99.90;;;;;;5084268;28;20491;-64
2022/10/30 02:01:38;;;;;;;1999.90;999.90;;;13.40;99.90;;;;;;5083371;28;20601;-64
2022/10/30 02:04:06;;;;;;;1999.90;999.90;;;13.40;99.90;;;;;;5083997;28;20029;-64
2022/10/30 02:06:32;;;;;;;1999.90;999.90;;;13.40;99.90;;;;;;5085974;28;20106;-64
2022/10/30 02:08:58;;;;;;;1999.90;999.90;;;13.40;99.90;;;;;;5082212;28;20039;-64
2022/10/30 02:11:25;;;;;;;1999.90;999.90;;;13.40;99.90;;;;;;5084633;28;20547;-64
2022/10/30 02:13:54;;;;;;;1999.90;999.90;;;13.40;99.90;;;;;;5085024;28;20805;-64
2022/10/30 02:16:21;;;;;;;1999.90;999.90;;;13.40;99.90;;;;;;5084560;28;20483;-64
2022/10/30 02:18:47;;;;;;;1999.90;999.90;;;13.40;99.90;;;;;;5080660;28;20046;-64
2022/10/30 02:21:12;;;;;;;1999.90;999.90;;;13.40;99.90;;;;;;5079176;28;20032;-64
2022/10/30 02:23:38;;;;;;;1999.90;999.90;;;13.30;99.90;;;;;;5077557;28;20044;-65
2022/10/30 02:26:04;;;;;;;1999.90;999.90;;;13.40;99.90;;;;;;5079553;28;20035;-64
2022/10/30 02:28:29;;;;;;;1999.90;999.90;;;13.40;99.90;;;;;;5084472;28;20093;-64
2022/10/30 02:30:55;;;;;;;1999.90;999.90;;;13.40;99.90;;;;;;5082546;28;20031;-64
2022/10/30 02:33:23;;;;;;;1999.90;999.90;;;13.40;99.90;;;;;;5081516;28;20044;-64
2022/10/30 02:35:49;;;;;;;1999.90;999.90;;;13.40;99.90;;;;;;5082578;28;20044;-64
2022/10/30 02:38:14;;;;;;;1999.90;999.90;;;13.40;99.90;;;;;;5083662;28;20040;-64
2022/10/30 02:40:40;;;;;;;1999.90;999.90;;;13.40;99.90;;;;;;5061460;28;20044;-64
2022/10/30 02:43:05;;;;;;;1999.90;999.90;;;13.30;99.90;;;;;;5075937;28;20454;-64
2022/10/30 02:45:31;;;;;;;1999.90;999.90;;;13.30;99.90;;;;;;5087229;28;20052;-64
2022/10/30 02:47:59;;;;;;;1999.90;999.90;;;13.30;99.90;;;;;;5080887;28;20052;-64
2022/10/30 02:50:24;;;;;;;1999.90;999.90;;;13.30;99.90;;;;;;5079380;28;20044;-64
2022/10/30 02:52:50;;;;;;;1999.90;999.90;;;13.20;99.90;;;;;;5060776;28;20434;-64
2022/10/30 02:55:15;;;;;;;1999.90;999.90;;;13.20;99.90;;;;;;5077564;28;20036;-64
2022/10/30 02:57:41;;;;;;;1999.90;999.90;;;13.20;99.90;;;;;;5081269;28;20123;-64
2022/10/30 03:00:07;;;;;;;1999.90;999.90;;;13.20;99.90;;;;;;5096149;28;20039;-64
2022/10/30 03:02:33;;;;;;;1999.90;999.90;;;13.10;99.90;;;;;;5076397;28;20059;-64
2022/10/30 03:04:58;;;;;;;1999.90;999.90;;;13.10;99.90;;;;;;5079068;28;20039;-64
2022/10/30 03:07:24;;;;;;;1999.90;999.90;;;13.10;99.90;;;;;;5076871;28;20054;-65
2022/10/30 03:09:50;;;;;;;1999.90;999.90;;;13.10;99.90;;;;;;5075208;28;20115;-64
2022/10/30 03:12:16;;;;;;;1999.90;999.90;;;13.10;99.90;;;;;;5082777;28;20044;-64
2022/10/30 03:14:42;;;;;;;1999.90;999.90;;;13.00;99.90;;;;;;5083466;28;20044;-64
2022/10/30 03:17:08;;;;;;;1999.90;999.90;;;13.00;99.90;;;;;;5081144;28;20404;-64
2022/10/30 03:19:34;;;;;;;1999.90;999.90;;;13.00;99.90;;;;;;5086723;28;20044;-64
2022/10/30 03:22:00;;;;;;;1999.90;999.90;;;13.00;99.90;;;;;;5078778;28;20047;-64
2022/10/30 03:24:25;;;;;;;1999.90;999.90;;;13.00;99.90;;;;;;5084241;28;20040;-64
2022/10/30 03:26:51;;;;;;;1999.90;999.90;;;13.00;99.90;;;;;;5079883;28;20442;-64
2022/10/30 03:29:17;;;;;;;1999.90;999.90;;;13.00;99.90;;;;;;5082643;28;20111;-64
2022/10/30 03:31:42;;;;;;;1999.90;999.90;;;13.00;99.90;;;;;;5081169;28;20064;-64
2022/10/30 03:34:08;;;;;;;1999.90;999.90;;;13.00;99.90;;;;;;5085380;28;20115;-64
2022/10/30 03:36:33;;;;;;;1999.90;999.90;;;13.00;99.90;;;;;;5092070;28;20037;-64
2022/10/30 03:38:59;;;;;;;1999.90;999.90;;;13.00;99.90;;;;;;5080613;28;20507;-64
2022/10/30 03:41:24;;;;;;;1999.90;999.90;;;12.90;99.90;;;;;;5087912;28;20449;-64
2022/10/30 03:43:50;;;;;;;1999.90;999.90;;;13.00;99.90;;;;;;5086755;28;20491;-64
2022/10/30 03:46:15;;;;;;;1999.90;999.90;;;13.00;99.90;;;;;;5097415;28;20052;-64
2022/10/30 03:48:41;;;;;;;1999.90;999.90;;;13.00;99.90;;;;;;5095579;28;20048;-64
2022/10/30 03:51:06;;;;;;;1999.90;999.90;;;13.00;99.90;;;;;;5062504;28;20040;-64
2022/10/30 03:53:32;;;;;;;1999.90;999.90;;;13.00;99.90;;;;;;5084369;28;20051;-64
2022/10/30 03:56:00;;;;;;;1999.90;999.90;;;13.00;99.90;;;;;;5074886;28;20036;-64
2022/10/30 03:58:27;;;;;;;1999.90;999.90;;;13.10;99.90;;;;;;5076939;28;20040;-64
2022/10/30 04:00:53;;;;;;;1999.90;999.90;;;13.10;99.90;;;;;;5084119;28;20047;-63
2022/10/30 04:03:18;;;;;;;1999.90;999.90;;;13.10;99.90;;;;;;5080942;28;20040;-64
2022/10/30 04:05:44;;;;;;;1999.90;999.90;;;13.10;99.90;;;;;;5085418;28;20047;-64
2022/10/30 04:08:12;;;;;;;1999.90;999.90;;;13.00;99.90;;;;;;5089526;28;20044;-64
2022/10/30 04:10:46;;;;;;;1999.90;999.90;;;13.00;99.90;;;;;;5083599;28;20114;-64
2022/10/30 04:13:13;;;;;;;1999.90;999.90;;;13.00;99.90;;;;;;5081397;28;20119;-64
2022/10/30 04:15:39;;;;;;;1999.90;999.90;;;13.00;99.90;;;;;;5080678;28;20116;-64
2022/10/30 04:18:04;;;;;;;1999.90;999.90;;;12.90;99.90;;;;;;5086918;28;20126;-64
2022/10/30 04:20:30;;;;;;;1999.90;999.90;;;12.90;99.90;;;;;;5081088;28;20515;-64
2022/10/30 04:22:57;;;;;;;1999.90;999.90;;;12.90;99.90;;;;;;5081461;28;20060;-64
2022/10/30 04:25:24;;;;;;;1999.90;999.90;;;12.90;99.90;;;;;;5082833;28;20123;-64
2022/10/30 04:27:51;;;;;;;1999.90;999.90;;;12.90;99.90;;;;;;5085044;28;20048;-64
2022/10/30 04:30:22;;;;;;;1999.90;999.90;;;12.80;99.90;;;;;;5082671;28;21250;-64
2022/10/30 04:32:49;;;;;;;1999.90;999.90;;;12.80;99.90;;;;;;5086557;28;20122;-63
2022/10/30 04:35:17;;;;;;;1999.90;999.90;;;12.80;99.90;;;;;;5085635;28;20044;-64
2022/10/30 04:37:50;;;;;;;1999.90;999.90;;;12.80;99.90;;;;;;5078514;28;20040;-64
2022/10/30 04:40:15;;;;;;;;;;;12.80;99.90;;;;;;5076149;28;20123;-64
2022/10/30 04:42:41;;;;;;;1999.90;999.90;;;12.70;99.90;;;;;;5062047;28;20006;-64
2022/10/30 04:45:07;;;;;;;1999.90;999.90;;;12.70;99.90;;;;;;5086916;28;20048;-64
2022/10/30 04:47:33;;;;;;;1999.90;999.90;;;12.70;99.90;;;;;;5080649;28;20048;-64
2022/10/30 04:49:58;;;;;;;1999.90;999.90;;;12.70;99.90;;;;;;5083403;28;20051;-63
2022/10/30 04:52:24;;;;;;;1999.90;999.90;;;12.70;99.90;;;;;;5087540;28;20042;-64
2022/10/30 04:54:49;;;;;;;1999.90;999.90;;;12.70;99.90;;;;;;5085773;28;20486;-64
2022/10/30 04:57:15;;;;;;;1999.90;999.90;;;12.60;99.90;;;;;;5085027;28;20044;-64
2022/10/30 04:59:40;;;;;;;1999.90;999.90;;;12.60;99.90;;;;;;5081882;28;20514;-64
2022/10/30 05:02:06;;;;;;;1999.90;999.90;;;12.60;99.90;;;;;;5090857;28;20540;-63
2022/10/30 05:04:31;;;;;;;1999.90;999.90;;;12.50;99.90;;;;;;5089867;28;20634;-64
2022/10/30 05:06:57;;;;;;;1999.90;999.90;;;12.40;99.90;;;;;;5085394;28;20032;-64
2022/10/30 05:09:22;;;;;;;1999.90;999.90;;;12.40;99.90;;;;;;5097447;28;20089;-64
2022/10/30 05:11:48;;;;;;;1999.90;999.90;;;12.30;99.90;;;;;;5079942;28;20097;-64
2022/10/30 05:14:14;;;;;;;1999.90;999.90;;;12.30;99.90;;;;;;5085879;28;20051;-64
2022/10/30 05:16:39;;;;;;;1999.90;999.90;;;12.30;99.90;;;;;;5101132;28;20032;-64
2022/10/30 05:19:05;;;;;;;1999.90;999.90;;;12.30;99.90;;;;;;5086015;28;20040;-64
2022/10/30 05:21:30;;;;;;;1999.90;999.90;;;12.40;99.90;;;;;;5083707;28;20043;-64
2022/10/30 05:23:56;;;;;;;1999.90;999.90;;;12.30;99.90;;;;;;5080662;28;20499;-64
2022/10/30 05:26:21;;;;;;;1999.90;999.90;;;12.30;99.90;;;;;;5085296;28;20044;-63
2022/10/30 05:28:47;;;;;;;1999.90;999.90;;;12.30;99.90;;;;;;5086512;28;20568;-64
2022/10/30 05:31:12;;;;;;;1999.90;999.90;;;12.30;99.90;;;;;;5080615;28;20434;-64
2022/10/30 05:33:38;;;;;;;1999.90;999.90;;;12.30;99.90;;;;;;5096384;28;20584;-64
2022/10/30 05:36:04;;;;;;;1999.90;999.90;;;12.20;99.90;;;;;;5080143;28;20039;-64
2022/10/30 05:38:29;;;;;;;1999.90;999.90;;;12.20;99.90;;;;;;5083796;28;20036;-63
2022/10/30 05:40:55;;;;;;;1999.90;999.90;;;12.20;99.90;;;;;;5083229;28;20047;-64
2022/10/30 05:43:20;;;;;;;1999.90;999.90;;;12.10;99.90;;;;;;5081637;28;20055;-64
2022/10/30 05:45:48;;;;;;;1999.90;999.90;;;12.10;99.90;;;;;;5087055;28;20063;-64
2022/10/30 05:48:14;;;;;;;1999.90;999.90;;;12.10;99.90;;;;;;5076696;28;20052;-64
2022/10/30 05:50:40;;;;;;;1999.90;999.90;;;12.10;99.90;;;;;;5080743;28;20364;-64
2022/10/30 05:53:06;;;;;;;1999.90;999.90;;;12.10;99.90;;;;;;5083390;28;20400;-64
2022/10/30 05:55:32;;;;;;;1999.90;999.90;;;12.10;99.90;;;;;;5075783;28;20093;-64
2022/10/30 05:58:00;;;;;;;1999.90;999.90;;;12.10;99.90;;;;;;5080956;28;20036;-64
2022/10/30 06:00:28;;;;;;;1999.90;999.90;;;12.20;99.90;;;;;;5089654;28;20083;-64
2022/10/30 06:03:05;;;;;;;1999.90;999.90;;;12.20;99.90;;;;;;5085896;28;20460;-64
2022/10/30 06:05:33;;;;;;;1999.90;999.90;;;12.20;99.90;;;;;;5059473;28;20474;-64
2022/10/30 06:07:59;;;;;;;1999.90;999.90;;;12.10;99.90;;;;;;5084331;28;20047;-64
2022/10/30 06:10:25;;;;;;;1999.90;999.90;;;12.20;99.90;;;;;;5091088;28;20048;-64
2022/10/30 06:12:55;;;;;;;1999.90;999.90;;;12.10;99.90;;;;;;5082053;28;20044;-64
2022/10/30 06:15:21;;;;;;;1999.90;999.90;;;12.10;99.90;;;;;;5078714;28;20426;-64
2022/10/30 06:17:47;;;;;;;1999.90;999.90;;;12.10;99.90;;;;;;5083605;28;20123;-64
2022/10/30 06:20:13;;;;;;;1999.90;999.90;;;12.00;99.90;;;;;;5075920;28;20093;-64
2022/10/30 06:22:39;;;;;;;1999.90;999.90;;;12.00;99.90;;;;;;5073689;28;20087;-64
2022/10/30 06:25:05;;;;;;;1999.90;999.90;;;12.00;99.90;;;;;;5081504;28;20123;-64
2022/10/30 06:27:34;;;;;;;1999.90;999.90;;;12.00;99.90;;;;;;5064446;28;20047;-64
2022/10/30 06:29:59;;;;;;;1999.90;999.90;;;12.10;99.90;;;;;;5076782;28;20032;-63
2022/10/30 06:32:25;;;;;;;1999.90;999.90;;;12.00;99.90;;;;;;5085630;28;20477;-64
2022/10/30 06:34:50;;;;;;;1999.90;999.90;;;12.10;99.90;;;;;;5076949;28;20032;-64
2022/10/30 06:37:16;;;;;;;1999.90;999.90;;;12.10;99.90;;;;;;5085364;28;20036;-64
2022/10/30 06:39:41;;;;;;;1999.90;999.90;;;12.10;99.90;;;;;;5086790;28;20076;-64
2022/10/30 06:42:07;;;;;;;1999.90;999.90;;;12.00;99.90;;;;;;5073956;28;20048;-63
2022/10/30 06:44:33;;;;;;;1999.90;999.90;;;12.10;99.90;;;;;;5075966;28;20118;-63
2022/10/30 06:46:58;;;;;;;1999.90;999.90;;;12.10;99.90;;;;;;5093363;28;20052;-64
2022/10/30 06:49:24;;;;;;;1999.90;999.90;;;12.10;99.90;;;;;;5073933;28;20067;-63
2022/10/30 06:51:49;;;;;;;1999.90;999.90;;;12.10;99.90;;;;;;5066319;28;20043;-64
2022/10/30 06:54:15;;;;;;;1999.90;999.90;;;12.20;99.90;;;;;;5083502;28;20067;-64
2022/10/30 06:56:41;;;;;;;1999.90;999.90;;;12.20;99.90;;;;;;5082146;28;20397;-64
2022/10/30 06:59:08;;;;;;;1999.90;999.90;;;12.20;99.90;;;;;;5079789;28;20044;-64
2022/10/30 07:01:34;;;;;;;1999.90;999.90;;;12.20;99.90;;;;;;5079519;28;20556;-64
2022/10/30 07:03:59;;;;;;;1999.90;999.90;;;12.20;99.90;;;;;;5088770;28;20069;-64
2022/10/30 07:06:25;;;;;;;1999.90;999.90;;;12.30;99.90;;;;;;5067859;28;20071;-64
2022/10/30 07:08:50;;;;;;;1999.90;999.90;;;12.30;99.90;;;;;;5083662;28;20456;-64
2022/10/30 07:11:16;;;;;;;1999.90;999.90;;;12.40;99.90;;;;;;5081855;28;20105;-64
2022/10/30 07:13:41;;;;;;;1999.90;999.90;;;12.40;99.90;;;;;;5079730;28;20035;-64
2022/10/30 07:16:07;;;;;;;1999.90;999.90;;;12.40;99.90;;;;;;5077856;28;20088;-64
2022/10/30 07:18:32;;;;;;;1999.90;999.90;;;12.50;99.90;;;;;;5078289;28;20040;-64
2022/10/30 07:20:58;;;;;;;1999.90;999.90;;;12.50;99.90;;;;;;5085261;28;20070;-64
2022/10/30 07:23:24;;;;;;;1999.90;999.90;;;12.50;99.90;;;;;;5075526;28;20052;-64
2022/10/30 07:25:49;;;;;;;1999.90;999.90;;;12.60;99.90;;;;;;5081554;28;20048;-64
2022/10/30 07:28:15;;;;;;;1999.90;999.90;;;12.60;99.90;;;;;;5067002;28;20052;-64
2022/10/30 07:30:40;;;;;;;1999.90;999.90;;;12.70;99.90;;;;;;5053715;28;20048;-64
2022/10/30 07:33:08;;;;;;;1999.90;999.90;;;12.70;99.90;;;;;;5060055;28;20289;-64
2022/10/30 07:35:35;;;;;;;1999.90;999.90;;;12.80;99.90;;;;;;5063370;28;20105;-64
2022/10/30 07:38:04;;;;;;;1999.90;999.90;;;12.80;99.90;;;;;;5054958;28;20052;-64
2022/10/30 07:40:30;;;;;;;1999.90;999.90;;;12.90;99.90;;;;;;5059758;28;20911;-64
2022/10/30 07:42:57;;;;;;;1999.90;999.90;;;12.90;99.90;;;;;;5067599;28;20043;-64
2022/10/30 07:45:23;;;;;;;1999.90;999.90;;;12.90;99.90;;;;;;5066593;28;20397;-64
2022/10/30 07:47:49;;;;;;;1999.90;999.90;;;13.00;99.90;;;;;;5058044;28;20063;-64
2022/10/30 07:50:14;;;;;;;1999.90;999.90;;;13.10;99.90;;;;;;5054212;28;20193;-64
2022/10/30 07:52:40;;;;;;;1999.90;999.90;;;13.10;99.90;;;;;;5077643;28;20036;-64
2022/10/30 07:55:06;;;;;;;1999.90;999.90;;;13.20;99.90;;;;;;5082208;28;20037;-64
2022/10/30 07:57:39;;;;;;;1999.90;999.90;;;13.30;99.90;;;;;;5061167;28;20091;-64
2022/10/30 08:00:08;;;;;;;1999.90;999.90;;;13.30;99.90;;;;;;5086755;28;20384;-64
2022/10/30 08:02:34;;;;;;;1999.90;999.90;;;13.40;99.90;;;;;;5082428;28;20352;-66
2022/10/30 08:05:00;;;;;;;1999.90;999.90;;;13.50;99.90;;;;;;5080476;28;20040;-64
2022/10/30 08:07:30;;;;;;;1999.90;999.90;;;13.60;99.90;;;;;;5082324;28;20043;-64
2022/10/30 08:09:55;;;;;;;1999.90;999.90;;;13.70;99.90;;;;;;5084425;28;20410;-64
2022/10/30 08:12:21;;;;;;;1999.90;999.90;;;13.80;99.90;;;;;;5085997;28;20101;-64
2022/10/30 08:14:47;;;;;;;1999.90;999.90;;;13.90;99.90;;;;;;5086214;28;20514;-64
2022/10/30 08:17:12;;;;;;;1999.90;999.90;;;14.20;99.90;;;;;;5091813;28;20122;-64
2022/10/30 08:19:38;;;;;;;1999.90;999.90;;;14.50;99.90;;;;;;5069995;28;20128;-64
2022/10/30 08:22:03;;;;;;;1999.90;999.90;;;14.80;99.90;;;;;;5082265;28;20067;-64
2022/10/30 08:24:29;;;;;;;1999.90;999.90;;;15.10;99.90;;;;;;5077416;28;20040;-64
2022/10/30 08:26:54;;;;;;;1999.90;999.90;;;15.20;99.90;;;;;;5083569;28;20484;-64
2022/10/30 08:29:20;;;;;;;1999.90;999.90;;;15.30;99.90;;;;;;5073278;28;20461;-64
2022/10/30 08:31:49;;;;;;;1999.90;999.90;;;15.60;99.90;;;;;;5071956;28;20445;-64
2022/10/30 08:34:15;;;;;;;1999.90;999.90;;;16.10;99.90;;;;;;5072269;28;20400;-64
2022/10/30 08:36:42;;;;;;;1999.90;999.90;;;16.50;99.90;;;;;;5060937;28;20032;-64
2022/10/30 08:39:08;;;;;;;1999.90;999.90;;;16.90;99.90;;;;;;5062361;28;20040;-65
2022/10/30 08:41:34;;;;;;;1999.90;999.90;;;17.40;99.90;;;;;;5072945;28;20047;-64
2022/10/30 08:43:59;;;;;;;1999.90;999.90;;;17.70;99.90;;;;;;5073901;28;20039;-64
2022/10/30 08:46:25;;;;;;;1999.90;999.90;;;17.90;99.90;;;;;;5077935;28;20060;-64
2022/10/30 08:48:50;;;;;;;1999.90;999.90;;;18.10;99.90;;;;;;5070714;28;20372;-64
2022/10/30 08:51:16;;;;;;;1999.90;999.90;;;18.30;99.90;;;;;;5080855;28;20040;-64
2022/10/30 08:53:42;;;;;;;1999.90;999.90;;;18.30;99.90;;;;;;5083520;28;20507;-64
2022/10/30 08:56:07;;;;;;;1999.90;999.90;;;18.60;99.90;;;;;;5083345;28;20028;-64
2022/10/30 08:58:33;;;;;;;1999.90;999.90;;;18.70;99.90;;;;;;5083576;28;20044;-64
2022/10/30 09:00:58;;;;;;;1999.90;999.90;;;18.90;99.90;;;;;;5090378;28;20082;-65
2022/10/30 09:03:24;;;;;;;1999.90;999.90;;;19.10;99.90;;;;;;5083189;28;20040;-64
2022/10/30 09:05:49;;;;;;;1999.90;999.90;;;19.10;99.90;;;;;;5079766;28;20044;-64
2022/10/30 09:08:15;;;;;;;1999.90;999.90;;;19.20;99.90;;;;;;5072124;28;20048;-64
2022/10/30 09:10:41;;;;;;;1999.90;999.90;;;19.30;99.90;;;;;;5075293;28;20115;-65
2022/10/30 09:13:08;;;;;;;1999.90;999.90;;;19.30;99.90;;;;;;5059019;28;20071;-65
2022/10/30 09:15:34;;;;;;;1999.90;999.90;;;19.50;99.90;;;;;;5072685;28;20047;-64
2022/10/30 09:18:02;;;;;;;1999.90;999.90;;;19.60;99.90;;;;;;5077323;28;20055;-64
2022/10/30 09:20:28;;;;;;;1999.90;999.90;;;19.70;99.90;;;;;;5075346;28;20047;-65
2022/10/30 09:22:53;;;;;;;1999.90;999.90;;;19.80;99.90;;;;;;5052733;28;20055;-64
2022/10/30 09:25:19;;;;;;;1999.90;999.90;;;19.90;99.90;;;;;;5070372;28;20037;-65
2022/10/30 09:27:45;;;;;;;1999.90;999.90;;;19.90;99.90;;;;;;5070685;28;20548;-65
2022/10/30 09:30:11;;;;;;;1999.90;999.90;;;20.00;99.90;;;;;;5070832;28;20500;-64
2022/10/30 09:32:37;;;;;;;1999.90;999.90;;;20.00;99.90;;;;;;5073964;28;20036;-65
2022/10/30 09:35:03;;;;;;;1999.90;999.90;;;20.00;99.90;;;;;;5074187;28;20079;-65
2022/10/30 09:37:33;;;;;;;1999.90;999.90;;;20.10;99.90;;;;;;5082664;28;20035;-64
2022/10/30 09:39:58;;;;;;;1999.90;999.90;;;20.10;99.90;;;;;;5082778;28;20044;-65
2022/10/30 09:42:47;;;;;;;1999.90;999.90;;;20.20;99.90;;;;;;5079311;28;20153;-65
2022/10/30 09:45:24;;;;;;;1999.90;999.90;;;20.30;99.90;;;;;;5073001;28;20064;-65
2022/10/30 09:48:15;;;;;;;1999.90;999.90;;;20.20;99.90;;;;;;5085076;28;20071;-65
2022/10/30 09:51:11;;;;;;;1999.90;999.90;;;20.20;99.90;;;;;;5080826;28;20042;-65
2022/10/30 09:53:53;;;;;;;1999.90;999.90;;;20.10;99.90;;;;;;5083267;28;20404;-65
2022/10/30 09:56:26;;;;;;;1999.90;999.90;;;19.80;99.90;;;;;;5088045;28;20408;-65
2022/10/30 09:59:10;;;;;;;1999.90;999.90;;;19.70;99.90;;;;;;5076031;28;20051;-65
2022/10/30 10:01:54;;;;;;;1999.90;999.90;;;19.60;99.90;;;;;;5081556;28;20039;-65
2022/10/30 10:04:41;;;;;;;1999.90;999.90;;;19.40;99.90;;;;;;5080945;28;20468;-65
2022/10/30 10:07:18;;;;;;;1999.90;999.90;;;19.40;99.90;;;;;;5088328;28;20047;-65
2022/10/30 10:09:44;;;;;;;1999.90;999.90;;;19.40;99.90;;;;;;5079618;28;21017;-65
2022/10/30 10:12:23;;;;;;;1999.90;999.90;;;19.30;99.90;;;;;;5076957;28;20054;-64
2022/10/30 10:14:49;;;;;;;1999.90;999.90;;;19.50;99.90;;;;;;5079856;28;20040;-65
2022/10/30 10:17:27;;;;;;;1999.90;999.90;;;19.70;99.90;;;;;;5086560;28;20118;-65
2022/10/30 10:20:00;;;;;;;1999.90;999.90;;;19.80;99.90;;;;;;5082512;28;20032;-64
2022/10/30 10:22:34;;;;;;;1999.90;999.90;;;20.00;99.90;;;;;;5080182;28;20040;-65
2022/10/30 10:25:04;;;;;;;1999.90;999.90;;;20.30;99.90;;;;;;5086183;28;20044;-64
2022/10/30 10:28:11;;;;;;;1999.90;999.90;;;20.30;99.90;;;;;;5076272;28;20048;-65
2022/10/30 10:31:00;;;;;;;1999.90;999.90;;;20.50;99.90;;;;;;5075454;28;20484;-65
2022/10/30 10:33:45;;;;;;;1999.90;999.90;;;20.60;99.90;;;;;;5076567;28;20063;-65
2022/10/30 10:36:33;;;;;;;1999.90;999.90;;;20.70;99.90;;;;;;5078512;28;20039;-65
2022/10/30 10:39:12;;;;;;;1999.90;999.90;;;20.90;99.90;;;;;;5077718;28;20092;-65
2022/10/30 10:41:58;;;;;;;1999.90;999.90;;;21.10;99.90;;;;;;5076884;28;20133;-65
2022/10/30 10:44:49;;;;;;;1999.90;999.90;;;21.20;99.90;;;;;;5078143;28;20043;-65
2022/10/30 10:47:34;;;;;;;1999.90;999.90;;;21.20;99.90;;;;;;5044732;28;20063;-65
2022/10/30 10:50:27;;;;;;;1999.90;999.90;;;21.20;99.90;;;;;;5075293;28;20201;-64
2022/10/30 10:53:02;;;;;;;1999.90;999.90;;;21.20;99.90;;;;;;5079751;28;20048;-65
2022/10/30 10:55:32;;;;;;;1999.90;999.90;;;21.10;99.90;;;;;;5080964;28;21101;-64
2022/10/30 10:58:05;;;;;;;1999.90;999.90;;;21.20;99.90;;;;;;5080746;28;20491;-64
2022/10/30 11:00:31;;;;;;;1999.90;999.90;;;21.10;99.90;;;;;;5082529;28;20511;-64
2022/10/30 11:03:44;;;;;;;1999.90;999.90;;;21.20;99.90;;;;;;5079992;28;20043;-64
2022/10/30 11:06:33;;;;;;;1999.90;999.90;;;21.20;99.90;;;;;;5030807;28;20045;-65
2022/10/30 11:09:20;;;;;;;1999.90;999.90;;;21.10;99.90;;;;;;5080039;28;20052;-64
2022/10/30 11:11:48;;;;;;;1999.90;999.90;;;21.10;99.90;;;;;;5082633;28;20603;-64
2022/10/30 11:14:19;;;;;;;1999.90;999.90;;;21.00;99.90;;;;;;5065477;28;20050;-64
2022/10/30 11:17:18;;;;;;;1999.90;999.90;;;21.00;99.90;;;;;;5072364;28;20041;-64
2022/10/30 11:19:44;;;;;;;1999.90;999.90;;;21.10;99.90;;;;;;5096570;28;20051;-65
2022/10/30 11:22:30;;;;;;;1999.90;999.90;;;21.20;99.90;;;;;;5077991;28;20089;-64
2022/10/30 11:25:15;;;;;;;1999.90;999.90;;;21.40;99.90;;;;;;5075047;28;20036;-65
2022/10/30 11:27:41;;;;;;;1999.90;999.90;;;21.50;99.90;;;;;;5082568;28;20415;-64
2022/10/30 11:30:18;;;;;;;1999.90;999.90;;;21.50;99.90;;;;;;5083343;28;20048;-64
2022/10/30 11:32:43;;;;;;;1999.90;999.90;;;21.50;99.90;;;;;;5082911;28;20044;-64
2022/10/30 11:35:09;;;;;;;1999.90;999.90;;;21.50;99.90;;;;;;5081427;28;20033;-64
2022/10/30 11:37:39;;;;;;;1999.90;999.90;;;21.40;99.90;;;;;;5085029;28;20048;-64
2022/10/30 11:40:09;;;;;;;1999.90;999.90;;;21.40;99.90;;;;;;5088257;28;20040;-65
2022/10/30 11:42:40;;;;;;;1999.90;999.90;;;21.40;99.90;;;;;;5083650;28;20046;-65
2022/10/30 11:45:35;;;;;;;1999.90;999.90;;;21.50;99.90;;;;;;5086215;28;20407;-65
2022/10/30 11:48:07;;;;;;;1999.90;999.90;;;21.40;99.90;;;;;;5072625;28;20044;-64
2022/10/30 11:50:33;;;;;;;1999.90;999.90;;;21.30;99.90;;;;;;5086321;28;20043;-64
2022/10/30 11:53:10;;;;;;;1999.90;999.90;;;21.20;99.90;;;;;;5102806;28;20480;-65
2022/10/30 11:55:44;;;;;;;1999.90;999.90;;;21.10;99.90;;;;;;5086426;28;20097;-65
2022/10/30 11:58:26;;;;;;;1999.90;999.90;;;21.20;99.90;;;;;;5084150;28;20497;-64
2022/10/30 12:01:21;;;;;;;1999.90;999.90;;;21.30;99.90;;;;;;5084610;28;20072;-64
2022/10/30 12:03:47;;;;;;;1999.90;999.90;;;21.30;99.90;;;;;;5082978;28;20579;-64
2022/10/30 12:06:17;;;;;;;1999.90;999.90;;;21.30;99.90;;;;;;5078448;28;20123;-64
2022/10/30 12:08:59;;;;;;;1999.90;999.90;;;21.30;99.90;;;;;;5085751;28;20445;-65
2022/10/30 12:11:30;;;;;;;1999.90;999.90;;;21.20;99.90;;;;;;5086427;28;20381;-64